sensor_id;sensor_type;location;lat;lon;timestamp;P1;durP1;ratioP1;P2;durP2;ratioP2
50363;SDS011;36272;59.400;17.982;2023-05-10T00:02:18;13.35;;;6.93;;
50363;SDS011;36272;59.400;17.982;2023-05-10T00:07:20;19.58;;;7.47;;
50363;SDS011;36272;59.400;17.982;2023-05-10T00:12:21;15.88;;;7.03;;
50363;SDS011;36272;59.400;17.982;2023-05-10T00:17:23;15.57;;;7.00;;
50363;SDS011;36272;59.400;17.982;2023-05-10T00:22:24;19.40;;;7.30;;
50363;SDS011;36272;59.400;17.982;2023-05-10T00:27:26;22.83;;;7.60;;
50363;SDS011;36272;59.400;17.982;2023-05-10T00:32:28;13.60;;;6.75;;
50363;SDS011;36272;59.400;17.982;2023-05-10T00:37:29;13.45;;;7.65;;
50363;SDS011;36272;59.400;17.982;2023-05-10T00:42:31;14.52;;;6.95;;
50363;SDS011;36272;59.400;17.982;2023-05-10T00:47:33;17.38;;;7.10;;
50363;SDS011;36272;59.400;17.982;2023-05-10T00:52:35;21.33;;;7.32;;
50363;SDS011;36272;59.400;17.982;2023-05-10T00:57:37;15.93;;;7.15;;
50363;SDS011;36272;59.400;17.982;2023-05-10T01:02:39;15.65;;;6.60;;
50363;SDS011;36272;59.400;17.982;2023-05-10T01:07:41;13.93;;;7.07;;
50363;SDS011;36272;59.400;17.982;2023-05-10T01:12:44;12.80;;;6.93;;
50363;SDS011;36272;59.400;17.982;2023-05-10T01:17:47;17.45;;;7.25;;
50363;SDS011;36272;59.400;17.982;2023-05-10T01:23:00;17.35;;;7.50;;
50363;SDS011;36272;59.400;17.982;2023-05-10T01:39:01;15.85;;;6.93;;
50363;SDS011;36272;59.400;17.982;2023-05-10T01:49:25;14.27;;;7.18;;
50363;SDS011;36272;59.400;17.982;2023-05-10T01:54:30;15.77;;;7.45;;
50363;SDS011;36272;59.400;17.982;2023-05-10T01:59:34;13.30;;;7.00;;
50363;SDS011;36272;59.400;17.982;2023-05-10T02:04:40;13.40;;;7.22;;
50363;SDS011;36272;59.400;17.982;2023-05-10T02:09:44;15.00;;;7.47;;
50363;SDS011;36272;59.400;17.982;2023-05-10T02:14:49;13.23;;;7.07;;
50363;SDS011;36272;59.400;17.982;2023-05-10T02:19:54;10.95;;;6.95;;
50363;SDS011;36272;59.400;17.982;2023-05-10T02:24:57;13.68;;;7.85;;
50363;SDS011;36272;59.400;17.982;2023-05-10T02:30:01;16.10;;;7.60;;
50363;SDS011;36272;59.400;17.982;2023-05-10T02:35:02;15.40;;;7.20;;
50363;SDS011;36272;59.400;17.982;2023-05-10T02:40:05;16.17;;;8.18;;
50363;SDS011;36272;59.400;17.982;2023-05-10T02:45:11;15.82;;;7.38;;
50363;SDS011;36272;59.400;17.982;2023-05-10T02:50:14;16.13;;;8.05;;
50363;SDS011;36272;59.400;17.982;2023-05-10T02:55:16;15.02;;;8.02;;
50363;SDS011;36272;59.400;17.982;2023-05-10T03:05:25;13.27;;;8.35;;
50363;SDS011;36272;59.400;17.982;2023-05-10T03:10:27;14.85;;;8.10;;
50363;SDS011;36272;59.400;17.982;2023-05-10T03:21:09;16.23;;;8.45;;
50363;SDS011;36272;59.400;17.982;2023-05-10T03:26:16;17.63;;;7.80;;
50363;SDS011;36272;59.400;17.982;2023-05-10T03:31:21;15.57;;;7.75;;
50363;SDS011;36272;59.400;17.982;2023-05-10T03:36:23;17.67;;;7.63;;
50363;SDS011;36272;59.400;17.982;2023-05-10T03:41:25;12.75;;;7.35;;
50363;SDS011;36272;59.400;17.982;2023-05-10T03:46:27;16.10;;;7.57;;
50363;SDS011;36272;59.400;17.982;2023-05-10T03:51:28;14.07;;;7.15;;
50363;SDS011;36272;59.400;17.982;2023-05-10T03:56:32;14.23;;;7.45;;
50363;SDS011;36272;59.400;17.982;2023-05-10T04:01:34;15.02;;;7.28;;
50363;SDS011;36272;59.400;17.982;2023-05-10T04:06:37;18.35;;;7.65;;
50363;SDS011;36272;59.400;17.982;2023-05-10T04:11:39;15.40;;;7.03;;
50363;SDS011;36272;59.400;17.982;2023-05-10T04:16:40;9.80;;;6.28;;
50363;SDS011;36272;59.400;17.982;2023-05-10T04:21:42;12.77;;;7.13;;
50363;SDS011;36272;59.400;17.982;2023-05-10T04:26:44;15.32;;;6.47;;
50363;SDS011;36272;59.400;17.982;2023-05-10T04:31:45;12.82;;;6.88;;
50363;SDS011;36272;59.400;17.982;2023-05-10T04:36:47;16.48;;;6.30;;
50363;SDS011;36272;59.400;17.982;2023-05-10T04:41:49;17.48;;;6.38;;
50363;SDS011;36272;59.400;17.982;2023-05-10T04:46:50;18.17;;;6.38;;
50363;SDS011;36272;59.400;17.982;2023-05-10T04:51:52;15.63;;;6.05;;
50363;SDS011;36272;59.400;17.982;2023-05-10T04:56:54;11.05;;;5.22;;
50363;SDS011;36272;59.400;17.982;2023-05-10T05:01:55;9.63;;;4.95;;
50363;SDS011;36272;59.400;17.982;2023-05-10T05:06:57;16.55;;;5.47;;
50363;SDS011;36272;59.400;17.982;2023-05-10T05:11:58;17.58;;;5.03;;
50363;SDS011;36272;59.400;17.982;2023-05-10T05:17:00;11.27;;;4.80;;
50363;SDS011;36272;59.400;17.982;2023-05-10T05:22:02;10.40;;;4.97;;
50363;SDS011;36272;59.400;17.982;2023-05-10T05:27:04;10.02;;;4.65;;
50363;SDS011;36272;59.400;17.982;2023-05-10T05:32:05;11.55;;;5.00;;
50363;SDS011;36272;59.400;17.982;2023-05-10T05:37:12;12.40;;;5.15;;
50363;SDS011;36272;59.400;17.982;2023-05-10T05:42:15;13.27;;;5.10;;
50363;SDS011;36272;59.400;17.982;2023-05-10T05:47:18;19.20;;;4.95;;
50363;SDS011;36272;59.400;17.982;2023-05-10T05:52:20;12.13;;;5.50;;
50363;SDS011;36272;59.400;17.982;2023-05-10T05:57:22;13.52;;;5.05;;
50363;SDS011;36272;59.400;17.982;2023-05-10T06:02:24;15.27;;;5.00;;
50363;SDS011;36272;59.400;17.982;2023-05-10T06:07:25;10.60;;;4.50;;
50363;SDS011;36272;59.400;17.982;2023-05-10T06:12:27;16.38;;;4.75;;
50363;SDS011;36272;59.400;17.982;2023-05-10T06:17:29;12.10;;;4.80;;
50363;SDS011;36272;59.400;17.982;2023-05-10T06:22:31;19.83;;;5.47;;
50363;SDS011;36272;59.400;17.982;2023-05-10T06:27:32;13.90;;;4.63;;
50363;SDS011;36272;59.400;17.982;2023-05-10T06:32:34;13.45;;;4.13;;
50363;SDS011;36272;59.400;17.982;2023-05-10T06:37:36;16.85;;;5.05;;
50363;SDS011;36272;59.400;17.982;2023-05-10T06:42:37;9.77;;;4.85;;
50363;SDS011;36272;59.400;17.982;2023-05-10T06:47:40;20.05;;;5.20;;
50363;SDS011;36272;59.400;17.982;2023-05-10T06:52:42;15.13;;;4.65;;
50363;SDS011;36272;59.400;17.982;2023-05-10T06:57:43;12.68;;;4.25;;
50363;SDS011;36272;59.400;17.982;2023-05-10T07:02:45;9.65;;;4.40;;
50363;SDS011;36272;59.400;17.982;2023-05-10T07:07:48;21.35;;;5.43;;
50363;SDS011;36272;59.400;17.982;2023-05-10T07:12:49;14.07;;;5.10;;
50363;SDS011;36272;59.400;17.982;2023-05-10T07:17:51;42.15;;;6.10;;
50363;SDS011;36272;59.400;17.982;2023-05-10T07:22:53;24.20;;;5.25;;
50363;SDS011;36272;59.400;17.982;2023-05-10T07:27:54;10.55;;;5.07;;
50363;SDS011;36272;59.400;17.982;2023-05-10T07:32:56;10.13;;;4.55;;
50363;SDS011;36272;59.400;17.982;2023-05-10T07:37:58;12.48;;;4.10;;
50363;SDS011;36272;59.400;17.982;2023-05-10T07:42:59;18.85;;;5.13;;
50363;SDS011;36272;59.400;17.982;2023-05-10T20:38:03;8.70;;;3.55;;
50363;SDS011;36272;59.400;17.982;2023-05-10T20:43:05;9.43;;;3.70;;
50363;SDS011;36272;59.400;17.982;2023-05-10T20:48:07;9.85;;;3.33;;
50363;SDS011;36272;59.400;17.982;2023-05-10T20:53:09;6.30;;;3.40;;
50363;SDS011;36272;59.400;17.982;2023-05-10T20:58:11;12.88;;;3.50;;
50363;SDS011;36272;59.400;17.982;2023-05-10T21:03:13;9.05;;;3.50;;
50363;SDS011;36272;59.400;17.982;2023-05-10T21:08:15;5.78;;;3.85;;
50363;SDS011;36272;59.400;17.982;2023-05-10T21:13:16;11.48;;;3.67;;
50363;SDS011;36272;59.400;17.982;2023-05-10T21:18:18;11.18;;;3.72;;
50363;SDS011;36272;59.400;17.982;2023-05-10T21:23:20;11.32;;;4.35;;
50363;SDS011;36272;59.400;17.982;2023-05-10T21:28:22;13.40;;;4.30;;
50363;SDS011;36272;59.400;17.982;2023-05-10T21:33:23;7.85;;;3.85;;
50363;SDS011;36272;59.400;17.982;2023-05-10T21:38:26;9.95;;;4.40;;
50363;SDS011;36272;59.400;17.982;2023-05-10T21:43:28;11.30;;;4.47;;
50363;SDS011;36272;59.400;17.982;2023-05-10T21:48:30;10.60;;;5.05;;
50363;SDS011;36272;59.400;17.982;2023-05-10T21:53:32;11.70;;;4.43;;
50363;SDS011;36272;59.400;17.982;2023-05-10T21:58:34;14.68;;;5.07;;
50363;SDS011;36272;59.400;17.982;2023-05-10T22:03:35;11.75;;;4.65;;
50363;SDS011;36272;59.400;17.982;2023-05-10T22:08:37;11.70;;;4.53;;
50363;SDS011;36272;59.400;17.982;2023-05-10T22:13:39;8.07;;;4.72;;
50363;SDS011;36272;59.400;17.982;2023-05-10T22:18:41;13.82;;;4.97;;
50363;SDS011;36272;59.400;17.982;2023-05-10T22:23:43;11.77;;;4.80;;
50363;SDS011;36272;59.400;17.982;2023-05-10T22:28:44;10.05;;;4.65;;
50363;SDS011;36272;59.400;17.982;2023-05-10T22:33:46;12.38;;;4.28;;
50363;SDS011;36272;59.400;17.982;2023-05-10T22:38:48;21.10;;;4.68;;
50363;SDS011;36272;59.400;17.982;2023-05-10T22:43:49;14.15;;;4.95;;
50363;SDS011;36272;59.400;17.982;2023-05-10T22:48:51;13.43;;;4.82;;
50363;SDS011;36272;59.400;17.982;2023-05-10T22:53:53;9.88;;;4.32;;
50363;SDS011;36272;59.400;17.982;2023-05-10T22:58:55;9.02;;;4.57;;
50363;SDS011;36272;59.400;17.982;2023-05-10T23:03:57;9.45;;;4.50;;
50363;SDS011;36272;59.400;17.982;2023-05-10T23:08:59;10.20;;;4.40;;
50363;SDS011;36272;59.400;17.982;2023-05-10T23:14:00;8.60;;;4.40;;
50363;SDS011;36272;59.400;17.982;2023-05-10T23:19:02;8.10;;;4.32;;
50363;SDS011;36272;59.400;17.982;2023-05-10T23:24:04;10.57;;;4.28;;
50363;SDS011;36272;59.400;17.982;2023-05-10T23:29:06;9.07;;;4.68;;
50363;SDS011;36272;59.400;17.982;2023-05-10T23:34:08;11.20;;;4.55;;
50363;SDS011;36272;59.400;17.982;2023-05-10T23:39:09;11.27;;;4.97;;
50363;SDS011;36272;59.400;17.982;2023-05-10T23:44:12;10.75;;;4.45;;
50363;SDS011;36272;59.400;17.982;2023-05-10T23:49:13;12.68;;;4.68;;
50363;SDS011;36272;59.400;17.982;2023-05-10T23:54:15;9.88;;;4.28;;
50363;SDS011;36272;59.400;17.982;2023-05-10T23:59:17;14.77;;;4.35;;
